Time;durP1;ratioP1;P1;durP2;ratioP2;P2;SDS_P1;SDS_P2;PMS_P1;PMS_P2;Temp;Humidity;BMP_temperature;BMP_pressure;BME280_temperature;BME280_humidity;BME280_pressure;Samples;Min_cycle;Max_cycle;Signal;HPM_P1;HPM_P2
2023/09/22 00:01:13;;;;;;;65.60;31.23;;;;;;;;;;5031229;28;20057;-63
2023/09/22 00:03:39;;;;;;;73.70;32.60;;;;;;;;;;5031020;28;20092;-63
2023/09/22 00:06:05;;;;;;;73.23;31.10;;;;;;;;;;5031484;28;20080;-63
2023/09/22 00:08:30;;;;;;;54.43;27.33;;;;;;;;;;5030595;28;20056;-63
2023/09/22 00:10:56;;;;;;;46.20;25.30;;;;;;;;;;5031282;28;20045;-63
2023/09/22 00:13:22;;;;;;;55.73;28.00;;;;;;;;;;5030730;28;20130;-63
2023/09/22 00:15:48;;;;;;;53.93;27.07;;;;;;;;;;5030594;28;20041;-63
2023/09/22 00:18:14;;;;;;;51.20;26.93;;;;;;;;;;5030070;28;20476;-63
2023/09/22 00:20:40;;;;;;;56.77;27.07;;;;;;;;;;5030881;28;20046;-63
2023/09/22 00:23:06;;;;;;;68.87;30.40;;;;;;;;;;5031164;28;20045;-63
2023/09/22 00:25:32;;;;;;;49.67;25.43;;;;;;;;;;5030705;28;20503;-63
2023/09/22 00:27:58;;;;;;;44.63;25.00;;;;;;;;;;5030646;28;20083;-63
2023/09/22 00:30:26;;;;;;;44.40;25.90;;;;;;;;;;5030478;28;20137;-63
2023/09/22 00:32:52;;;;;;;54.27;28.20;;;;;;;;;;5030524;28;20045;-63
2023/09/22 00:35:18;;;;;;;43.60;25.40;;;;;;;;;;5030260;28;20051;-63
2023/09/22 00:37:44;;;;;;;58.03;28.00;;;;;;;;;;5029663;28;20050;-63
2023/09/22 00:40:12;;;;;;;60.13;28.87;;;;;;;;;;5029994;28;20053;-63
2023/09/22 00:42:38;;;;;;;55.10;27.30;;;;;;;;;;5029506;28;20049;-63
2023/09/22 00:45:04;;;;;;;42.13;24.33;;;;;;;;;;5030093;28;20454;-63
2023/09/22 00:47:31;;;;;;;74.47;30.67;;;;;;;;;;5029345;28;20072;-63
2023/09/22 00:49:57;;;;;;;54.10;27.40;;;;;;;;;;5029994;28;20046;-63
2023/09/22 00:52:24;;;;;;;52.53;25.43;;;;;;;;;;5030678;28;20506;-64
2023/09/22 00:54:50;;;;;;;45.27;24.03;;;;;;;;;;5030226;28;20049;-63
2023/09/22 00:57:19;;;;;;;45.27;25.17;;;;;;;;;;5030037;28;20407;-63
2023/09/22 00:59:48;;;;;;;54.27;27.23;;;;;;;;;;5029520;28;20534;-64
2023/09/22 01:02:14;;;;;;;50.70;26.57;;;;;;;;;;5030128;28;20049;-63
2023/09/22 01:04:40;;;;;;;57.67;28.30;;;;;;;;;;5029839;28;20083;-63
2023/09/22 01:07:06;;;;;;;53.30;26.33;;;;;;;;;;5029983;28;20118;-63
2023/09/22 01:09:32;;;;;;;52.67;27.37;;;;;;;;;;5028447;28;20526;-63
2023/09/22 01:11:59;;;;;;;58.07;28.03;;;;;;;;;;5030301;28;20083;-63
2023/09/22 01:14:25;;;;;;;56.17;27.50;;;;;;;;;;5030102;28;20049;-63
2023/09/22 01:16:51;;;;;;;63.80;28.20;;;;;;;;;;5029654;28;20052;-63
2023/09/22 01:19:18;;;;;;;43.57;25.43;;;;;;;;;;5029883;28;20264;-63
2023/09/22 01:21:44;;;;;;;39.97;24.67;;;;;;;;;;5027201;28;20460;-63
2023/09/22 01:24:11;;;;;;;53.97;25.90;;;;;;;;;;5024734;28;20056;-63
2023/09/22 01:26:38;;;;;;;46.97;25.60;;;;;;;;;;5029293;28;20098;-63
2023/09/22 01:29:04;;;;;;;49.73;25.73;;;;;;;;;;5029576;28;20061;-63
2023/09/22 01:31:30;;;;;;;39.07;24.07;;;;;;;;;;5029576;28;20044;-63
2023/09/22 01:33:56;;;;;;;42.70;24.67;;;;;;;;;;5029375;28;20041;-63
2023/09/22 01:36:22;;;;;;;36.67;24.40;;;;;;;;;;5029475;28;20435;-63
2023/09/22 01:38:48;;;;;;;44.13;25.13;;;;;;;;;;5028864;28;20053;-63
2023/09/22 01:41:14;;;;;;;56.30;27.30;;;;;;;;;;5029089;28;20425;-63
2023/09/22 01:43:41;;;;;;;37.73;23.57;;;;;;;;;;5029081;28;20518;-63
2023/09/22 01:46:07;;;;;;;41.63;23.93;;;;;;;;;;5028041;28;20049;-63
2023/09/22 01:48:33;;;;;;;49.97;26.63;;;;;;;;;;5027882;28;20123;-63
2023/09/22 01:51:02;;;;;;;57.80;27.93;;;;;;;;;;5029334;28;20046;-63
2023/09/22 01:53:28;;;;;;;48.60;27.00;;;;;;;;;;5028807;28;20176;-63
2023/09/22 01:55:54;;;;;;;45.83;24.03;;;;;;;;;;5027164;28;20045;-63
2023/09/22 01:58:20;;;;;;;52.60;24.57;;;;;;;;;;5028920;28;20148;-63
2023/09/22 02:00:48;;;;;;;45.57;24.97;;;;;;;;;;5028957;28;20053;-63
2023/09/22 02:03:14;;;;;;;41.73;22.97;;;;;;;;;;5029083;28;20049;-63
2023/09/22 02:05:40;;;;;;;45.50;25.23;;;;;;;;;;5060982;28;20049;-63
2023/09/22 02:08:08;;;;;;;47.77;25.20;;;;;;;;;;5028995;28;20048;-63
2023/09/22 02:10:34;;;;;;;50.47;24.87;;;;;;;;;;5028604;28;20049;-63
2023/09/22 02:13:00;;;;;;;56.03;25.73;;;;;;;;;;5028436;28;20111;-63
2023/09/22 02:15:26;;;;;;;47.53;25.37;;;;;;;;;;5028712;28;20563;-63
2023/09/22 02:17:53;;;;;;;47.57;24.00;;;;;;;;;;5028290;28;20088;-63
2023/09/22 02:20:22;;;;;;;54.40;24.30;;;;;;;;;;5028765;28;20099;-63
2023/09/22 02:22:55;;;;;;;41.00;23.37;;;;;;;;;;5028466;28;20136;-63
2023/09/22 02:25:22;;;;;;;55.20;26.02;;;;;;;;;;5028852;28;20056;-63
2023/09/22 02:27:49;;;;;;;51.23;24.97;;;;;;;;;;5027343;28;20044;-63
2023/09/22 02:30:15;;;;;;;45.93;23.73;;;;;;;;;;5028287;28;20294;-67
2023/09/22 02:32:42;;;;;;;47.10;26.07;;;;;;;;;;5029010;28;20041;-67
2023/09/22 02:35:08;;;;;;;52.03;24.87;;;;;;;;;;5028371;28;20037;-63
2023/09/22 02:37:34;;;;;;;62.67;28.10;;;;;;;;;;5028779;28;20049;-63
2023/09/22 02:40:01;;;;;;;60.03;26.33;;;;;;;;;;5028461;28;20064;-62
2023/09/22 02:42:28;;;;;;;48.93;25.90;;;;;;;;;;5028120;28;20520;-63
2023/09/22 02:44:54;;;;;;;56.47;26.03;;;;;;;;;;5028598;28;20045;-63
2023/09/22 02:47:20;;;;;;;78.27;30.20;;;;;;;;;;5028823;28;20099;-63
2023/09/22 02:49:45;;;;;;;72.77;28.47;;;;;;;;;;5028771;28;20053;-63
2023/09/22 02:52:12;;;;;;;55.53;25.70;;;;;;;;;;5027724;28;20042;-63
2023/09/22 02:54:38;;;;;;;47.23;23.93;;;;;;;;;;5028875;28;20053;-63
2023/09/22 02:57:04;;;;;;;56.23;23.20;;;;;;;;;;5027703;28;20059;-63
2023/09/22 02:59:30;;;;;;;42.33;22.13;;;;;;;;;;5027970;28;20041;-63
2023/09/22 03:01:57;;;;;;;53.00;23.77;;;;;;;;;;5031587;28;20053;-63
2023/09/22 03:04:23;;;;;;;52.07;23.17;;;;;;;;;;5032536;28;20103;-63
2023/09/22 03:06:49;;;;;;;54.97;23.00;;;;;;;;;;5032328;28;20087;-63
2023/09/22 03:09:15;;;;;;;43.60;20.93;;;;;;;;;;5032404;28;20037;-63
2023/09/22 03:11:41;;;;;;;34.87;18.77;;;;;;;;;;5032044;28;20052;-63
2023/09/22 03:14:07;;;;;;;56.40;23.13;;;;;;;;;;5031118;28;20492;-63
2023/09/22 03:16:34;;;;;;;43.97;19.57;;;;;;;;;;5032120;28;20056;-63
2023/09/22 03:19:00;;;;;;;49.07;21.87;;;;;;;;;;5032062;28;20044;-63
2023/09/22 03:21:26;;;;;;;45.27;18.93;;;;;;;;;;5031996;28;20045;-63
2023/09/22 03:23:53;;;;;;;49.53;21.43;;;;;;;;;;5032014;28;20038;-63
2023/09/22 03:26:19;;;;;;;40.47;21.37;;;;;;;;;;5031989;28;20049;-63
2023/09/22 03:28:45;;;;;;;45.43;21.77;;;;;;;;;;5030693;28;20042;-63
2023/09/22 03:31:12;;;;;;;47.93;22.27;;;;;;;;;;5032038;28;20131;-63
2023/09/22 03:33:41;;;;;;;59.60;24.80;;;;;;;;;;5031769;28;20045;-63
2023/09/22 03:36:10;;;;;;;47.57;23.57;;;;;;;;;;5031874;28;20081;-63
2023/09/22 03:38:39;;;;;;;44.63;23.03;;;;;;;;;;5031931;28;20061;-63
2023/09/22 03:41:06;;;;;;;47.73;24.40;;;;;;;;;;5031608;28;20064;-63
2023/09/22 03:43:33;;;;;;;52.63;25.40;;;;;;;;;;5031040;28;20046;-63
2023/09/22 03:45:59;;;;;;;69.13;28.23;;;;;;;;;;5031693;28;20060;-63
2023/09/22 03:48:25;;;;;;;62.93;28.30;;;;;;;;;;5031307;28;20045;-63
2023/09/22 03:50:51;;;;;;;56.53;27.37;;;;;;;;;;5031548;28;20071;-63
2023/09/22 03:53:17;;;;;;;60.60;27.47;;;;;;;;;;5031335;28;20050;-63
2023/09/22 03:55:44;;;;;;;58.07;27.63;;;;;;;;;;5031274;28;20502;-63
2023/09/22 03:58:10;;;;;;;67.43;29.23;;;;;;;;;;5031179;28;20041;-63
2023/09/22 04:00:36;;;;;;;83.13;32.50;;;;;;;;;;5031286;28;20504;-63
2023/09/22 04:03:04;;;;;;;65.20;27.97;;;;;;;;;;5031207;28;20408;-62
2023/09/22 04:05:30;;;;;;;86.97;32.43;;;;;;;;;;5030894;28;20172;-63
2023/09/22 04:07:57;;;;;;;74.50;31.17;;;;;;;;;;5029575;28;20034;-63
2023/09/22 04:10:23;;;;;;;88.47;32.80;;;;;;;;;;5030560;28;20170;-63
2023/09/22 04:12:50;;;;;;;92.07;35.27;;;;;;;;;;5030834;28;20511;-63
2023/09/22 04:15:16;;;;;;;74.10;32.10;;;;;;;;;;5031043;28;20071;-63
2023/09/22 04:17:42;;;;;;;131.73;39.33;;;;;;;;;;5030679;28;20451;-63
2023/09/22 04:20:10;;;;;;;83.00;34.23;;;;;;;;;;5030105;28;20110;-63
2023/09/22 04:22:37;;;;;;;80.00;34.83;;;;;;;;;;5030889;28;20516;-63
2023/09/22 04:25:08;;;;;;;99.33;36.10;;;;;;;;;;5030512;28;20057;-63
2023/09/22 04:27:40;;;;;;;124.60;40.17;;;;;;;;;;5030744;28;20056;-63
2023/09/22 04:30:07;;;;;;;102.43;38.30;;;;;;;;;;5030719;28;20045;-63
2023/09/22 04:32:33;;;;;;;117.17;40.77;;;;;;;;;;5030649;28;20052;-63
2023/09/22 04:35:06;;;;;;;101.60;38.93;;;;;;;;;;5030818;28;20136;-63
2023/09/22 04:37:32;;;;;;;123.88;41.10;;;;;;;;;;5029937;28;20041;-63
2023/09/22 04:39:58;;;;;;;92.80;36.77;;;;;;;;;;5031217;28;20091;-63
2023/09/22 04:42:24;;;;;;;134.30;41.73;;;;;;;;;;5026647;28;20435;-63
2023/09/22 04:44:54;;;;;;;109.07;40.53;;;;;;;;;;5030393;28;20155;-63
2023/09/22 04:47:20;;;;;;;115.17;41.40;;;;;;;;;;5030696;28;20053;-63
2023/09/22 04:49:46;;;;;;;124.83;42.83;;;;;;;;;;5029695;28;20051;-63
2023/09/22 04:52:12;;;;;;;117.00;41.47;;;;;;;;;;5030713;28;20084;-63
2023/09/22 04:54:40;;;;;;;124.60;44.67;;;;;;;;;;5029418;28;20494;-62
2023/09/22 04:57:06;;;;;;;146.73;45.93;;;;;;;;;;5030425;28;20072;-63
2023/09/22 04:59:32;;;;;;;126.20;45.67;;;;;;;;;;5025255;28;20508;-63
2023/09/22 05:01:59;;;;;;;120.73;45.10;;;;;;;;;;5029697;28;20054;-63
2023/09/22 05:04:25;;;;;;;140.27;47.63;;;;;;;;;;5030306;28;20095;-63
2023/09/22 05:06:52;;;;;;;115.73;43.67;;;;;;;;;;5030272;28;20124;-63
2023/09/22 05:09:18;;;;;;;113.83;42.00;;;;;;;;;;5029899;28;20053;-63
2023/09/22 05:11:44;;;;;;;100.73;41.07;;;;;;;;;;5029928;28;20049;-63
2023/09/22 05:14:10;;;;;;;122.83;42.50;;;;;;;;;;5029126;28;20507;-63
2023/09/22 05:16:37;;;;;;;114.23;40.47;;;;;;;;;;5029325;28;20048;-63
2023/09/22 05:19:03;;;;;;;107.93;41.73;;;;;;;;;;5029892;28;20053;-63
2023/09/22 05:21:29;;;;;;;103.07;39.57;;;;;;;;;;5029387;28;20046;-63
2023/09/22 05:23:55;;;;;;;108.07;40.93;;;;;;;;;;5029233;28;20096;-63
2023/09/22 05:26:21;;;;;;;122.03;41.10;;;;;;;;;;5029782;28;20045;-63
2023/09/22 05:28:49;;;;;;;85.77;35.50;;;;;;;;;;5028404;28;20072;-63
2023/09/22 05:31:16;;;;;;;80.83;35.00;;;;;;;;;;5028337;28;20061;-63
2023/09/22 05:33:42;;;;;;;97.77;35.87;;;;;;;;;;5027702;28;20052;-63
2023/09/22 05:36:08;;;;;;;87.03;33.40;;;;;;;;;;5029227;28;20056;-63
2023/09/22 05:38:35;;;;;;;75.07;33.20;;;;;;;;;;5028881;28;20050;-63
2023/09/22 05:41:02;;;;;;;74.57;32.53;;;;;;;;;;5029017;28;20068;-63
2023/09/22 05:43:30;;;;;;;91.53;32.63;;;;;;;;;;5028950;28;20061;-63
2023/09/22 05:45:57;;;;;;;87.63;31.40;;;;;;;;;;5028763;28;20057;-63
2023/09/22 05:48:23;;;;;;;84.23;31.10;;;;;;;;;;5028945;28;20053;-63
2023/09/22 05:50:56;;;;;;;86.70;30.47;;;;;;;;;;5029061;28;20111;-63
2023/09/22 05:53:24;;;;;;;75.22;29.45;;;;;;;;;;5028921;28;20089;-63
2023/09/22 05:55:50;;;;;;;64.97;26.60;;;;;;;;;;5027907;28;20483;-63
2023/09/22 05:58:16;;;;;;;54.27;25.57;;;;;;;;;;5028570;28;20077;-63
2023/09/22 06:00:44;;;;;;;71.33;27.13;;;;;;;;;;5029038;28;20045;-62
2023/09/22 06:03:10;;;;;;;67.30;26.23;;;;;;;;;;5027768;28;20563;-63
2023/09/22 06:05:36;;;;;;;77.87;28.00;;;;;;;;;;5027611;28;20080;-62
2023/09/22 06:08:05;;;;;;;69.43;27.67;;;;;;;;;;5028288;28;20049;-63
2023/09/22 06:10:31;;;;;;;71.13;28.47;;;;;;;;;;5028671;28;20470;-63
2023/09/22 06:12:58;;;;;;;64.57;26.83;;;;;;;;;;5028809;28;20041;-63
2023/09/22 06:15:24;;;;;;;73.03;27.33;;;;;;;;;;5028423;28;20050;-63
2023/09/22 06:17:50;;;;;;;64.53;26.13;;;;;;;;;;5028496;28;20554;-63
2023/09/22 06:20:16;;;;;;;63.07;26.00;;;;;;;;;;5028248;28;20143;-65
2023/09/22 06:22:43;;;;;;;53.80;24.50;;;;;;;;;;5027876;28;20037;-64
2023/09/22 06:25:09;;;;;;;53.03;22.80;;;;;;;;;;5028492;28;20089;-63
2023/09/22 06:27:35;;;;;;;56.50;25.37;;;;;;;;;;5028289;28;20124;-63
2023/09/22 06:30:03;;;;;;;55.43;25.10;;;;;;;;;;5026967;28;20113;-62
2023/09/22 06:32:29;;;;;;;57.10;25.10;;;;;;;;;;5028468;28;20065;-63
2023/09/22 06:34:55;;;;;;;60.70;24.43;;;;;;;;;;5028232;28;20136;-63
2023/09/22 06:37:21;;;;;;;58.37;25.10;;;;;;;;;;5027706;28;20511;-62
2023/09/22 06:39:47;;;;;;;56.33;24.77;;;;;;;;;;5028802;28;20084;-63
2023/09/22 06:42:13;;;;;;;49.07;23.83;;;;;;;;;;5028177;28;20085;-63
2023/09/22 06:44:39;;;;;;;53.60;23.40;;;;;;;;;;5027128;28;20522;-63
2023/09/22 06:47:05;;;;;;;61.07;23.17;;;;;;;;;;5028480;28;20037;-63
2023/09/22 06:49:35;;;;;;;47.10;22.97;;;;;;;;;;5028330;28;20527;-62
2023/09/22 06:52:01;;;;;;;44.33;21.23;;;;;;;;;;5020345;28;20466;-63
2023/09/22 06:54:27;;;;;;;41.67;20.93;;;;;;;;;;5028106;28;20045;-63
2023/09/22 06:56:54;;;;;;;40.70;19.53;;;;;;;;;;5027993;28;20065;-63
2023/09/22 06:59:21;;;;;;;32.43;17.70;;;;;;;;;;5027114;28;20045;-63
2023/09/22 07:01:48;;;;;;;48.10;20.57;;;;;;;;;;5027511;28;20630;-63
2023/09/22 07:04:14;;;;;;;39.17;19.43;;;;;;;;;;5027785;28;20045;-63
2023/09/22 07:06:40;;;;;;;40.57;18.37;;;;;;;;;;5028635;28;20037;-62
2023/09/22 07:09:09;;;;;;;38.47;19.23;;;;;;;;;;5027651;28;20500;-63
2023/09/22 07:11:40;;;;;;;34.60;18.13;;;;;;;;;;5060477;28;20829;-62
2023/09/22 07:14:07;;;;;;;34.87;17.10;;;;;;;;;;5027623;28;20348;-63
2023/09/22 07:16:33;;;;;;;37.73;18.50;;;;;;;;;;5027963;28;20041;-63
2023/09/22 07:19:00;;;;;;;33.07;17.00;;;;;;;;;;5026585;28;20080;-63
2023/09/22 07:21:26;;;;;;;28.90;15.27;;;;;;;;;;5027984;28;20508;-63
2023/09/22 07:23:55;;;;;;;34.23;16.73;;;;;;;;;;5028052;28;20037;-62
2023/09/22 07:26:21;;;;;;;24.50;15.23;;;;;;;;;;5027909;28;20097;-63
2023/09/22 07:28:47;;;;;;;35.40;16.27;;;;;;;;;;5027410;28;20435;-62
2023/09/22 07:31:13;;;;;;;29.23;15.50;;;;;;;;;;5026821;28;20060;-63
2023/09/22 07:33:40;;;;;;;28.37;15.13;;;;;;;;;;5027887;28;20088;-62
2023/09/22 07:36:07;;;;;;;31.07;15.53;;;;;;;;;;5026632;28;20087;-63
2023/09/22 07:38:34;;;;;;;27.53;14.63;;;;;;;;;;5025848;28;20077;-63
2023/09/22 07:41:00;;;;;;;25.37;15.17;;;;;;;;;;5026614;28;20092;-63
2023/09/22 07:43:29;;;;;;;26.10;14.63;;;;;;;;;;5022628;28;20165;-62
2023/09/22 07:45:55;;;;;;;20.83;12.50;;;;;;;;;;5029142;28;20054;-63
2023/09/22 07:48:21;;;;;;;22.57;12.47;;;;;;;;;;5030618;28;20072;-63
2023/09/22 07:50:47;;;;;;;18.43;11.17;;;;;;;;;;5030463;28;20048;-63
2023/09/22 07:53:13;;;;;;;20.20;10.93;;;;;;;;;;5029231;28;20412;-63
2023/09/22 07:55:40;;;;;;;20.57;10.27;;;;;;;;;;5030643;28;20121;-63
2023/09/22 07:58:06;;;;;;;20.80;10.60;;;;;;;;;;5030111;28;20519;-63
2023/09/22 08:00:33;;;;;;;15.53;9.17;;;;;;;;;;5030351;28;20445;-63
2023/09/22 08:02:59;;;;;;;14.33;8.50;;;;;;;;;;5030436;28;20045;-63
2023/09/22 08:05:26;;;;;;;13.13;7.43;;;;;;;;;;5029998;28;20136;-63
2023/09/22 08:07:53;;;;;;;11.10;7.53;;;;;;;;;;5030082;28;20053;-64
2023/09/22 08:10:22;;;;;;;12.37;6.47;;;;;;;;;;5030147;28;20567;-61
2023/09/22 08:12:49;;;;;;;8.57;5.60;;;;;;;;;;5030073;28;20522;-62
2023/09/22 08:15:15;;;;;;;11.40;5.90;;;;;;;;;;5029766;28;20071;-62
2023/09/22 08:17:42;;;;;;;9.03;4.83;;;;;;;;;;5030013;28;20095;-62
2023/09/22 08:20:12;;;;;;;10.20;5.80;;;;;;;;;;5030092;28;20442;-62
2023/09/22 08:22:40;;;;;;;6.93;4.63;;;;;;;;;;5030160;28;20049;-62
2023/09/22 08:25:08;;;;;;;10.10;4.60;;;;;;;;;;5029680;28;20041;-62
2023/09/22 08:27:35;;;;;;;7.83;4.13;;;;;;;;;;5030024;28;20120;-62
2023/09/22 08:30:09;;;;;;;5.87;3.10;;;;;;;;;;5029486;28;20052;-62
2023/09/22 08:32:34;;;;;;;5.55;2.30;;;;;;;;;;5030201;28;20171;-62
2023/09/22 08:35:00;;;;;;;7.73;2.53;;;;;;;;;;5029731;28;20140;-62
2023/09/22 08:37:26;;;;;;;9.40;2.50;;;;;;;;;;5029441;28;20042;-62
2023/09/22 08:39:55;;;;;;;4.07;1.80;;;;;;;;;;5029720;28;20506;-62
2023/09/22 08:42:21;;;;;;;6.83;2.40;;;;;;;;;;5028822;28;20057;-62
2023/09/22 08:44:47;;;;;;;3.97;2.00;;;;;;;;;;5029585;28;20088;-62
2023/09/22 08:47:14;;;;;;;4.80;2.00;;;;;;;;;;5029515;28;20087;-62
2023/09/22 08:49:40;;;;;;;2.83;1.60;;;;;;;;;;5028136;28;20452;-63
2023/09/22 08:52:06;;;;;;;3.97;1.70;;;;;;;;;;5029474;28;20053;-62
2023/09/22 08:54:32;;;;;;;5.40;1.50;;;;;;;;;;5028760;28;20083;-62
2023/09/22 08:56:58;;;;;;;5.20;1.70;;;;;;;;;;5028353;28;20127;-63
2023/09/22 08:59:24;;;;;;;3.47;1.57;;;;;;;;;;5028910;28;20134;-63
2023/09/22 09:01:50;;;;;;;2.60;1.53;;;;;;;;;;5029558;28;20041;-63
2023/09/22 09:04:31;;;;;;;4.43;1.60;;;;;;;;;;5029233;28;20046;-63
2023/09/22 09:06:57;;;;;;;5.13;1.73;;;;;;;;;;5028747;28;20156;-63
2023/09/22 09:09:23;;;;;;;4.10;2.00;;;;;;;;;;5028754;28;20519;-63
2023/09/22 09:12:08;;;;;;;4.77;1.67;;;;;;;;;;5029024;28;20045;-63
2023/09/22 09:14:34;;;;;;;2.57;1.30;;;;;;;;;;5029129;28;20046;-63
2023/09/22 09:17:00;;;;;;;4.57;1.83;;;;;;;;;;5028344;28;20385;-63
2023/09/22 09:19:26;;;;;;;3.97;1.40;;;;;;;;;;5029119;28;20039;-63
2023/09/22 09:22:12;;;;;;;5.23;1.30;;;;;;;;;;5029016;28;20614;-63
2023/09/22 09:24:41;;;;;;;2.60;0.90;;;;;;;;;;5028839;28;20136;-63
2023/09/22 09:27:21;;;;;;;3.37;1.40;;;;;;;;;;5028190;28;20512;-63
2023/09/22 09:29:49;;;;;;;2.67;1.27;;;;;;;;;;5028791;28;20041;-63
2023/09/22 09:32:22;;;;;;;3.67;0.80;;;;;;;;;;5028683;28;20092;-63
2023/09/22 09:34:48;;;;;;;5.30;1.00;;;;;;;;;;5028633;28;20049;-63
2023/09/22 09:37:14;;;;;;;2.27;0.90;;;;;;;;;;5028395;28;20049;-63
2023/09/22 09:39:48;;;;;;;2.97;1.20;;;;;;;;;;5028502;28;20081;-62
2023/09/22 09:42:16;;;;;;;2.10;0.90;;;;;;;;;;5028252;28;20099;-63
2023/09/22 09:44:47;;;;;;;3.67;1.40;;;;;;;;;;5028491;28;20089;-62
2023/09/22 09:47:18;;;;;;;3.67;1.40;;;;;;;;;;5028621;28;20080;-63
2023/09/22 09:49:46;;;;;;;6.33;1.50;;;;;;;;;;5027935;28;20045;-62
2023/09/22 09:52:15;;;;;;;5.00;0.90;;;;;;;;;;5028155;28;20657;-62
2023/09/22 09:54:45;;;;;;;4.30;1.03;;;;;;;;;;5027907;28;20524;-62
2023/09/22 09:57:11;;;;;;;3.50;1.17;;;;;;;;;;5027906;28;20045;-61
2023/09/22 09:59:39;;;;;;;3.53;1.07;;;;;;;;;;5028056;28;20047;-62
2023/09/22 10:02:06;;;;;;;3.40;1.17;;;;;;;;;;5028365;28;20052;-62
2023/09/22 10:04:33;;;;;;;3.77;1.50;;;;;;;;;;5027551;28;20085;-62
2023/09/22 10:07:00;;;;;;;2.87;0.97;;;;;;;;;;5028076;28;20050;-62
2023/09/22 10:09:26;;;;;;;3.53;1.20;;;;;;;;;;5027785;28;20045;-62
2023/09/22 10:11:52;;;;;;;3.80;1.07;;;;;;;;;;5027951;28;20092;-62
2023/09/22 10:14:37;;;;;;;3.50;1.10;;;;;;;;;;5027262;28;20077;-61
2023/09/22 10:17:03;;;;;;;3.43;1.47;;;;;;;;;;5028151;28;20054;-62
2023/09/22 10:19:41;;;;;;;3.83;1.80;;;;;;;;;;5027790;28;20416;-61
2023/09/22 10:22:12;;;;;;;4.17;1.13;;;;;;;;;;5028224;28;20045;-61
2023/09/22 10:24:38;;;;;;;7.10;1.60;;;;;;;;;;5027464;28;20049;-61
2023/09/22 10:27:11;;;;;;;2.60;1.00;;;;;;;;;;5027865;28;20041;-61
2023/09/22 10:29:52;;;;;;;5.40;1.20;;;;;;;;;;5027679;28;20041;-62
2023/09/22 10:32:18;;;;;;;2.90;1.07;;;;;;;;;;5027682;28;20053;-61
2023/09/22 10:34:49;;;;;;;2.57;1.00;;;;;;;;;;5027443;28;20111;-61
2023/09/22 10:37:15;;;;;;;3.10;1.10;;;;;;;;;;5027540;28;20061;-61
2023/09/22 10:39:51;;;;;;;2.43;0.97;;;;;;;;;;5025648;28;20068;-60
2023/09/22 10:42:17;;;;;;;3.30;1.10;;;;;;;;;;5026810;28;20085;-61
2023/09/22 10:44:59;;;;;;;2.57;1.07;;;;;;;;;;5026971;28;20488;-61
2023/09/22 10:47:27;;;;;;;4.00;0.97;;;;;;;;;;5026737;28;20434;-61
2023/09/22 10:49:54;;;;;;;3.10;1.10;;;;;;;;;;5034029;28;20051;-60
2023/09/22 10:52:20;;;;;;;3.67;0.90;;;;;;;;;;5046104;28;20566;-60
2023/09/22 10:54:47;;;;;;;3.27;1.23;;;;;;;;;;5033596;28;20121;-60
2023/09/22 10:57:27;;;;;;;4.40;1.30;;;;;;;;;;5029056;28;20037;-61
2023/09/22 10:59:55;;;;;;;1.90;0.77;;;;;;;;;;5048128;28;20053;-61
2023/09/22 11:02:25;;;;;;;2.60;0.97;;;;;;;;;;5034482;28;20120;-61
2023/09/22 11:04:51;;;;;;;2.73;0.90;;;;;;;;;;5027581;28;20057;-61
2023/09/22 11:07:32;;;;;;;3.67;1.00;;;;;;;;;;5034310;28;20152;-61
2023/09/22 11:09:59;;;;;;;4.37;0.70;;;;;;;;;;5026947;28;20052;-62
2023/09/22 11:12:29;;;;;;;2.40;1.03;;;;;;;;;;5027798;28;20120;-62
2023/09/22 11:14:55;;;;;;;2.47;1.00;;;;;;;;;;5026698;28;20479;-62
2023/09/22 11:17:22;;;;;;;2.07;1.03;;;;;;;;;;5026559;28;20515;-61
2023/09/22 11:19:54;;;;;;;4.03;1.20;;;;;;;;;;5027641;28;20048;-60
2023/09/22 11:22:21;;;;;;;3.25;0.98;;;;;;;;;;5031468;28;20122;-61
2023/09/22 11:24:47;;;;;;;3.53;1.13;;;;;;;;;;5029782;28;20573;-61
2023/09/22 11:27:13;;;;;;;2.53;1.47;;;;;;;;;;5030809;28;20045;-61
2023/09/22 11:29:40;;;;;;;2.30;1.00;;;;;;;;;;5030594;28;20326;-61
2023/09/22 11:32:06;;;;;;;4.30;1.00;;;;;;;;;;5030972;28;20049;-60
2023/09/22 11:34:33;;;;;;;2.03;0.83;;;;;;;;;;5030777;28;20045;-60
2023/09/22 11:36:59;;;;;;;2.53;0.87;;;;;;;;;;5030764;28;20499;-60
2023/09/22 11:39:26;;;;;;;1.73;0.80;;;;;;;;;;5030892;28;20536;-60
2023/09/22 11:41:52;;;;;;;2.73;0.67;;;;;;;;;;5030713;28;20061;-60
2023/09/22 11:44:18;;;;;;;4.53;0.70;;;;;;;;;;5029812;28;20045;-60
2023/09/22 11:46:48;;;;;;;1.60;0.70;;;;;;;;;;5031090;28;20045;-60
2023/09/22 11:49:14;;;;;;;2.67;0.93;;;;;;;;;;5030429;28;20064;-60
2023/09/22 11:51:44;;;;;;;2.77;0.90;;;;;;;;;;5030060;28;20136;-60
2023/09/22 11:54:11;;;;;;;1.43;0.73;;;;;;;;;;5029895;28;20508;-60
2023/09/22 11:56:37;;;;;;;2.53;0.97;;;;;;;;;;5029337;28;20041;-61
2023/09/22 11:59:04;;;;;;;1.80;0.87;;;;;;;;;;5030031;28;20136;-60
2023/09/22 12:01:30;;;;;;;2.47;0.90;;;;;;;;;;5029868;28;20445;-61
2023/09/22 12:03:56;;;;;;;2.50;1.30;;;;;;;;;;5029938;28;20132;-60
2023/09/22 12:06:23;;;;;;;2.33;0.80;;;;;;;;;;5029795;28;20187;-60
2023/09/22 12:08:49;;;;;;;3.60;1.17;;;;;;;;;;5029335;28;20383;-61
2023/09/22 12:11:15;;;;;;;1.87;1.10;;;;;;;;;;5029274;28;20160;-61
2023/09/22 12:13:41;;;;;;;2.67;1.00;;;;;;;;;;5029542;28;20435;-61
2023/09/22 12:16:07;;;;;;;3.53;0.93;;;;;;;;;;5029703;28;20439;-60
2023/09/22 12:18:33;;;;;;;4.70;1.10;;;;;;;;;;5029600;28;20049;-61
2023/09/22 12:20:59;;;;;;;2.87;1.00;;;;;;;;;;5029219;28;20046;-60
2023/09/22 12:23:25;;;;;;;1.77;0.90;;;;;;;;;;5029892;28;20051;-61
2023/09/22 12:25:54;;;;;;;3.50;0.87;;;;;;;;;;5029836;28;20115;-61
2023/09/22 12:28:20;;;;;;;1.83;0.90;;;;;;;;;;5030053;28;20056;-61
2023/09/22 12:30:46;;;;;;;4.10;1.03;;;;;;;;;;5029157;28;20117;-61
2023/09/22 12:33:14;;;;;;;2.33;0.90;;;;;;;;;;5029555;28;20053;-61
2023/09/22 12:35:41;;;;;;;3.47;0.80;;;;;;;;;;5029782;28;20527;-61
2023/09/22 12:38:07;;;;;;;2.23;1.47;;;;;;;;;;5029581;28;20094;-61
2023/09/22 12:40:33;;;;;;;4.03;1.10;;;;;;;;;;5029128;28;20515;-61
2023/09/22 12:42:59;;;;;;;2.53;0.93;;;;;;;;;;5028707;28;20060;-61
2023/09/22 12:45:25;;;;;;;2.03;0.90;;;;;;;;;;5029323;28;20148;-61
2023/09/22 12:47:51;;;;;;;2.23;0.80;;;;;;;;;;5029634;28;20045;-61
2023/09/22 12:50:17;;;;;;;2.23;0.80;;;;;;;;;;5028699;28;20420;-61
2023/09/22 12:52:43;;;;;;;3.67;0.83;;;;;;;;;;5028807;28;20033;-60
2023/09/22 12:55:10;;;;;;;2.10;0.70;;;;;;;;;;5028928;28;20042;-61
2023/09/22 12:57:37;;;;;;;1.83;0.60;;;;;;;;;;5028512;28;20065;-61
2023/09/22 13:00:04;;;;;;;3.50;0.93;;;;;;;;;;5028775;28;20057;-61
2023/09/22 13:02:30;;;;;;;2.70;0.83;;;;;;;;;;5029306;28;20491;-61
2023/09/22 13:04:56;;;;;;;2.63;1.10;;;;;;;;;;5029127;28;20046;-61
2023/09/22 13:07:23;;;;;;;1.80;0.80;;;;;;;;;;5028949;28;20049;-61
2023/09/22 13:09:49;;;;;;;3.87;1.30;;;;;;;;;;5029246;28;20080;-60
2023/09/22 13:12:16;;;;;;;3.40;1.00;;;;;;;;;;5028881;28;20042;-61
2023/09/22 13:14:42;;;;;;;5.47;1.80;;;;;;;;;;5029156;28;20049;-61
2023/09/22 13:17:08;;;;;;;4.10;0.97;;;;;;;;;;5028618;28;20455;-61
2023/09/22 13:19:34;;;;;;;2.10;1.00;;;;;;;;;;5028888;28;20068;-61
2023/09/22 13:22:00;;;;;;;2.87;1.43;;;;;;;;;;5028903;28;20041;-61
2023/09/22 13:24:29;;;;;;;2.23;0.83;;;;;;;;;;5028637;28;20049;-61
2023/09/22 13:26:56;;;;;;;3.27;0.90;;;;;;;;;;5027962;28;20495;-61
2023/09/22 13:29:22;;;;;;;2.03;0.73;;;;;;;;;;5028757;28;20081;-61
2023/09/22 13:31:49;;;;;;;2.40;0.80;;;;;;;;;;5028739;28;20076;-61
2023/09/22 13:34:15;;;;;;;2.27;0.80;;;;;;;;;;5027875;28;20530;-61
2023/09/22 13:36:41;;;;;;;2.47;0.70;;;;;;;;;;5028542;28;20045;-61
2023/09/22 13:39:08;;;;;;;3.80;1.30;;;;;;;;;;5028746;28;20048;-61
2023/09/22 13:41:34;;;;;;;3.07;0.80;;;;;;;;;;5028121;28;20103;-61
2023/09/22 13:44:01;;;;;;;2.60;0.70;;;;;;;;;;5027326;28;20053;-61
2023/09/22 13:46:27;;;;;;;2.33;0.80;;;;;;;;;;5028677;28;20045;-61
2023/09/22 13:48:53;;;;;;;2.77;0.80;;;;;;;;;;5028458;28;20079;-61
2023/09/22 13:51:19;;;;;;;1.70;0.50;;;;;;;;;;5028156;28;20053;-61
2023/09/22 13:53:45;;;;;;;2.47;0.80;;;;;;;;;;5028272;28;20049;-61
2023/09/22 13:56:17;;;;;;;2.77;1.00;;;;;;;;;;5028211;28;20107;-61
2023/09/22 13:58:44;;;;;;;3.22;0.60;;;;;;;;;;5027984;28;20046;-61
2023/09/22 14:01:13;;;;;;;5.60;0.90;;;;;;;;;;5028181;28;20041;-61
2023/09/22 14:03:40;;;;;;;3.93;0.90;;;;;;;;;;5028475;28;20049;-61
2023/09/22 14:06:06;;;;;;;2.70;0.90;;;;;;;;;;5027561;28;20052;-61
2023/09/22 14:08:34;;;;;;;1.60;0.83;;;;;;;;;;5027945;28;20758;-61
2023/09/22 14:11:00;;;;;;;2.30;0.50;;;;;;;;;;5027861;28;20423;-61
2023/09/22 14:13:26;;;;;;;2.93;1.00;;;;;;;;;;5027954;28;20072;-61
2023/09/22 14:15:52;;;;;;;1.97;0.60;;;;;;;;;;5027512;28;20579;-61
2023/09/22 14:18:19;;;;;;;2.57;1.00;;;;;;;;;;5027606;28;20056;-61
2023/09/22 14:20:45;;;;;;;4.07;1.60;;;;;;;;;;5027961;28;20049;-61
2023/09/22 14:23:11;;;;;;;1.80;0.73;;;;;;;;;;5027555;28;20072;-61
2023/09/22 14:25:37;;;;;;;2.27;0.60;;;;;;;;;;5027848;28;20488;-61
2023/09/22 14:28:06;;;;;;;3.50;1.10;;;;;;;;;;5027544;28;20107;-61